Time;durP1;ratioP1;P1;durP2;ratioP2;P2;SDS_P1;SDS_P2;PMS_P1;PMS_P2;Temp;Humidity;BMP_temperature;BMP_pressure;BME280_temperature;BME280_humidity;BME280_pressure;Samples;Min_cycle;Max_cycle;Signal;HPM_P1;HPM_P2
2023/01/03 00:01:38;;;;;;;12.82;2.10;;;;;;;;;;5011992;28;20017;-71
2023/01/03 00:04:03;;;;;;;7.68;1.98;;;;;;;;;;5010144;28;20025;-71
2023/01/03 00:06:30;;;;;;;15.27;3.25;;;;;;;;;;5011739;28;20029;-70
2023/01/03 00:08:57;;;;;;;6.88;1.83;;;;;;;;;;5011123;28;20025;-71
2023/01/03 00:14:10;;;;;;;5.78;2.30;;;;;;;;;;4987549;28;20096;-70
2023/01/03 00:16:35;;;;;;;9.57;2.83;;;;;;;;;;5007715;28;20006;-70
2023/01/03 00:19:04;;;;;;;15.83;2.57;;;;;;;;;;5007391;28;20014;-71
2023/01/03 00:21:29;;;;;;;16.92;2.63;;;;;;;;;;5010008;28;20355;-70
2023/01/03 00:23:55;;;;;;;8.63;1.90;;;;;;;;;;5014800;28;20478;-71
2023/01/03 00:26:20;;;;;;;11.23;1.80;;;;;;;;;;5013538;28;20289;-70
2023/01/03 00:28:45;;;;;;;9.93;1.97;;;;;;;;;;5019645;28;20859;-72
2023/01/03 00:31:11;;;;;;;6.43;1.95;;;;;;;;;;4993141;28;20272;-70
2023/01/03 00:33:37;;;;;;;10.10;2.50;;;;;;;;;;5006121;28;20049;-72
2023/01/03 00:36:03;;;;;;;10.77;2.97;;;;;;;;;;5007574;28;20471;-71
2023/01/03 00:38:28;;;;;;;10.80;2.42;;;;;;;;;;5017349;28;20022;-70
2023/01/03 00:40:53;;;;;;;15.30;2.40;;;;;;;;;;5012341;28;20018;-70
2023/01/03 00:43:27;;;;;;;9.50;2.87;;;;;;;;;;5004880;28;20430;-71
2023/01/03 00:45:53;;;;;;;12.52;2.92;;;;;;;;;;5004282;28;20280;-70
2023/01/03 00:48:18;;;;;;;11.18;2.45;;;;;;;;;;5010506;28;20022;-71
2023/01/03 00:50:43;;;;;;;8.30;2.55;;;;;;;;;;5007965;28;20638;-70
2023/01/03 00:53:08;;;;;;;15.30;2.57;;;;;;;;;;4999874;23;20047;-70
2023/01/03 00:55:34;;;;;;;13.10;2.27;;;;;;;;;;4992387;28;20644;-70
2023/01/03 00:57:59;;;;;;;8.35;2.25;;;;;;;;;;4985756;28;20265;-70
2023/01/03 01:00:24;;;;;;;9.43;2.80;;;;;;;;;;4985595;28;20048;-70
2023/01/03 01:02:51;;;;;;;9.15;2.42;;;;;;;;;;4987809;28;20050;-70
2023/01/03 01:05:17;;;;;;;7.03;2.88;;;;;;;;;;4992933;28;20030;-70
2023/01/03 01:07:42;;;;;;;23.73;3.63;;;;;;;;;;4971336;28;20023;-70
2023/01/03 01:10:07;;;;;;;11.43;3.20;;;;;;;;;;4985937;28;21472;-70
2023/01/03 01:12:32;;;;;;;7.20;2.92;;;;;;;;;;4989149;28;20646;-71
2023/01/03 01:14:57;;;;;;;9.93;2.77;;;;;;;;;;4988603;28;20101;-70
2023/01/03 01:17:23;;;;;;;12.90;3.60;;;;;;;;;;4993958;28;20857;-70
2023/01/03 01:19:48;;;;;;;7.85;3.05;;;;;;;;;;4990594;28;20268;-70
2023/01/03 01:22:13;;;;;;;9.87;2.87;;;;;;;;;;4990800;28;20095;-70
2023/01/03 01:24:39;;;;;;;20.52;3.65;;;;;;;;;;4991191;28;20273;-70
2023/01/03 01:27:04;;;;;;;11.50;3.28;;;;;;;;;;4991688;28;20096;-70
2023/01/03 01:29:29;;;;;;;6.35;3.22;;;;;;;;;;4989166;28;20402;-70
2023/01/03 01:31:55;;;;;;;14.80;3.65;;;;;;;;;;4992011;28;20029;-71
2023/01/03 01:34:20;;;;;;;10.90;2.80;;;;;;;;;;4989984;28;20026;-71
2023/01/03 01:36:46;;;;;;;11.68;3.97;;;;;;;;;;4992989;28;20033;-71
2023/01/03 01:39:12;;;;;;;7.53;3.00;;;;;;;;;;4979861;28;20493;-71
2023/01/03 01:44:40;;;;;;;14.35;3.63;;;;;;;;;;4986822;28;20037;-70
2023/01/03 01:47:26;;;;;;;11.57;4.18;;;;;;;;;;4991817;28;20023;-71
2023/01/03 01:49:57;;;;;;;10.52;4.50;;;;;;;;;;4990763;28;20502;-70
2023/01/03 01:52:23;;;;;;;8.75;3.17;;;;;;;;;;4987878;28;20035;-70
2023/01/03 01:54:49;;;;;;;13.90;2.97;;;;;;;;;;4991630;28;20014;-70
2023/01/03 01:57:17;;;;;;;14.65;3.53;;;;;;;;;;4996197;28;20109;-70
2023/01/03 01:59:42;;;;;;;11.93;3.17;;;;;;;;;;4991593;28;20030;-70
2023/01/03 02:02:08;;;;;;;12.25;3.70;;;;;;;;;;4992890;28;20019;-70
2023/01/03 02:04:35;;;;;;;10.95;3.63;;;;;;;;;;4994091;28;20109;-71
2023/01/03 02:07:01;;;;;;;5.90;3.38;;;;;;;;;;4996939;28;20478;-71
2023/01/03 02:09:26;;;;;;;15.38;3.72;;;;;;;;;;4997610;28;20026;-71
2023/01/03 02:15:06;;;;;;;10.57;3.53;;;;;;;;;;4999335;28;20052;-70
2023/01/03 02:17:40;;;;;;;8.57;3.33;;;;;;;;;;4997868;28;20053;-70
2023/01/03 02:20:17;;;;;;;12.57;3.33;;;;;;;;;;4994724;28;20399;-70
2023/01/03 02:22:42;;;;;;;12.30;3.58;;;;;;;;;;4994119;28;20052;-70
2023/01/03 02:25:10;;;;;;;8.30;3.77;;;;;;;;;;4992593;28;20487;-70
2023/01/03 02:27:35;;;;;;;9.10;3.40;;;;;;;;;;4992438;28;20276;-71
2023/01/03 02:30:19;;;;;;;11.95;3.50;;;;;;;;;;4995698;28;20061;-70
2023/01/03 02:32:44;;;;;;;10.50;3.22;;;;;;;;;;4993559;28;20837;-71
2023/01/03 02:35:16;;;;;;;10.20;2.77;;;;;;;;;;4994516;28;20021;-71
2023/01/03 02:37:46;;;;;;;13.32;3.13;;;;;;;;;;4991628;28;20306;-70
2023/01/03 02:40:20;;;;;;;5.28;2.33;;;;;;;;;;4996288;28;20041;-71
2023/01/03 02:42:57;;;;;;;13.25;3.60;;;;;;;;;;4993496;28;21631;-70
2023/01/03 02:45:33;;;;;;;6.32;2.03;;;;;;;;;;4981057;28;20026;-70
2023/01/03 02:48:12;;;;;;;16.60;3.20;;;;;;;;;;4994132;28;20486;-70
2023/01/03 02:50:40;;;;;;;9.45;2.75;;;;;;;;;;4989982;28;20164;-70
2023/01/03 02:53:07;;;;;;;9.68;2.40;;;;;;;;;;4989884;28;20498;-70
2023/01/03 02:55:34;;;;;;;7.10;1.90;;;;;;;;;;4990974;28;20537;-70
2023/01/03 02:58:11;;;;;;;5.80;1.95;;;;;;;;;;4989395;28;20074;-70
2023/01/03 03:00:42;;;;;;;8.63;1.90;;;;;;;;;;4990786;28;20114;-70
2023/01/03 03:03:10;;;;;;;7.82;2.20;;;;;;;;;;4992086;28;20022;-70
2023/01/03 03:05:44;;;;;;;13.55;2.13;;;;;;;;;;4994008;28;20044;-70
2023/01/03 03:08:09;;;;;;;6.20;2.22;;;;;;;;;;4992859;28;20375;-70
2023/01/03 03:13:27;;;;;;;12.05;3.25;;;;;;;;;;4991743;28;20053;-70
2023/01/03 03:15:56;;;;;;;9.52;4.50;;;;;;;;;;4993275;28;20022;-70
2023/01/03 03:18:23;;;;;;;14.60;3.97;;;;;;;;;;4998941;28;20117;-70
2023/01/03 03:26:33;;;;;;;12.23;2.53;;;;;;;;;;4995051;28;20100;-70
2023/01/03 03:29:03;;;;;;;11.48;2.70;;;;;;;;;;4997875;28;20366;-70
2023/01/03 03:31:28;;;;;;;;;;;;;;;;;;4994059;28;20022;-70
2023/01/03 03:34:06;;;;;;;9.25;2.67;;;;;;;;;;4993967;28;19910;-70
2023/01/03 03:36:38;;;;;;;12.32;2.67;;;;;;;;;;4992354;28;20081;-70
2023/01/03 03:39:05;;;;;;;7.00;3.88;;;;;;;;;;4995347;28;20030;-70
2023/01/03 03:47:28;;;;;;;13.80;2.72;;;;;;;;;;4993115;28;20097;-70
2023/01/03 03:49:54;;;;;;;10.02;2.17;;;;;;;;;;4994870;28;20063;-70
2023/01/03 03:52:22;;;;;;;4.63;2.05;;;;;;;;;;4981621;28;20030;-70
2023/01/03 03:54:52;;;;;;;4.72;2.10;;;;;;;;;;4997361;28;20109;-70
2023/01/03 03:57:17;;;;;;;19.67;3.23;;;;;;;;;;4997360;28;20510;-70
2023/01/03 03:59:44;;;;;;;8.82;2.70;;;;;;;;;;4994743;28;20041;-70
2023/01/03 04:02:10;;;;;;;15.38;2.38;;;;;;;;;;4981629;28;20026;-70
2023/01/03 04:04:37;;;;;;;8.60;2.45;;;;;;;;;;4998329;28;20026;-71
2023/01/03 04:07:02;;;;;;;8.35;2.50;;;;;;;;;;4996042;28;20015;-70
2023/01/03 04:09:28;;;;;;;12.70;2.38;;;;;;;;;;4998319;28;20088;-70
2023/01/03 04:11:53;;;;;;;12.18;2.58;;;;;;;;;;4978733;28;20463;-70
2023/01/03 04:14:18;;;;;;;6.27;2.30;;;;;;;;;;4994627;28;20104;-70
2023/01/03 04:16:43;;;;;;;10.40;2.67;;;;;;;;;;4994664;28;20327;-70
2023/01/03 04:19:09;;;;;;;15.97;2.77;;;;;;;;;;4991596;28;20285;-70
2023/01/03 04:21:35;;;;;;;6.20;2.35;;;;;;;;;;4991026;28;20280;-70
2023/01/03 04:24:00;;;;;;;11.38;2.40;;;;;;;;;;4992957;28;20113;-70
2023/01/03 04:26:25;;;;;;;6.00;2.55;;;;;;;;;;4998745;28;20539;-70
2023/01/03 04:28:51;;;;;;;5.10;2.23;;;;;;;;;;4997851;28;20026;-70
2023/01/03 04:31:16;;;;;;;7.30;2.87;;;;;;;;;;4997389;28;20311;-70
2023/01/03 04:33:41;;;;;;;13.85;2.88;;;;;;;;;;4996310;28;20284;-70
2023/01/03 04:36:06;;;;;;;9.47;2.73;;;;;;;;;;4996789;28;20513;-70
2023/01/03 04:38:31;;;;;;;5.72;2.42;;;;;;;;;;4993234;28;20268;-70
2023/01/03 04:41:06;;;;;;;8.52;2.58;;;;;;;;;;4988782;28;20018;-70
2023/01/03 04:46:15;;;;;;;10.30;2.72;;;;;;;;;;4993638;28;20037;-70
2023/01/03 04:48:40;;;;;;;8.32;2.97;;;;;;;;;;4997168;28;20018;-70
2023/01/03 04:51:05;;;;;;;9.07;3.08;;;;;;;;;;4993436;28;20014;-70
2023/01/03 04:53:31;;;;;;;5.30;2.57;;;;;;;;;;4994023;28;20089;-70
2023/01/03 04:55:56;;;;;;;13.70;2.90;;;;;;;;;;4995277;28;20309;-70
2023/01/03 04:58:21;;;;;;;15.52;2.78;;;;;;;;;;4997386;28;20284;-70
2023/01/03 05:00:46;;;;;;;18.17;3.72;;;;;;;;;;4995644;28;20022;-70
2023/01/03 05:03:12;;;;;;;8.55;2.78;;;;;;;;;;4992471;28;20049;-70
2023/01/03 05:05:38;;;;;;;11.07;3.20;;;;;;;;;;4997100;28;20478;-70
2023/01/03 05:08:04;;;;;;;9.13;2.38;;;;;;;;;;4993198;28;20099;-70
2023/01/03 05:10:29;;;;;;;5.70;2.72;;;;;;;;;;4994430;28;20145;-70
2023/01/03 05:13:00;;;;;;;6.28;3.28;;;;;;;;;;4992329;28;20517;-70
2023/01/03 05:15:29;;;;;;;16.30;3.42;;;;;;;;;;4993202;28;20097;-70
2023/01/03 05:17:54;;;;;;;8.27;3.10;;;;;;;;;;4993244;28;20052;-70
2023/01/03 05:25:51;;;;;;;6.32;3.05;;;;;;;;;;4995190;28;20081;-70
2023/01/03 05:28:20;;;;;;;9.05;3.05;;;;;;;;;;4995401;28;20434;-70
2023/01/03 05:30:45;;;;;;;8.52;3.70;;;;;;;;;;4990408;28;20061;-70
2023/01/03 05:33:10;;;;;;;8.50;3.57;;;;;;;;;;4998686;28;20054;-70
2023/01/03 05:35:35;;;;;;;15.90;3.83;;;;;;;;;;4996005;28;20297;-70
2023/01/03 05:38:01;;;;;;;8.93;3.60;;;;;;;;;;4993273;28;20292;-70
2023/01/03 05:40:26;;;;;;;12.10;3.50;;;;;;;;;;4991879;28;20348;-70
2023/01/03 05:42:51;;;;;;;12.05;3.97;;;;;;;;;;4990007;28;20297;-70
2023/01/03 05:45:16;;;;;;;10.82;3.72;;;;;;;;;;4992949;28;20018;-70
2023/01/03 05:47:41;;;;;;;13.32;4.25;;;;;;;;;;4976314;28;20079;-70
2023/01/03 05:50:07;;;;;;;13.20;4.43;;;;;;;;;;4995590;28;20031;-70
2023/01/03 05:52:32;;;;;;;15.25;3.83;;;;;;;;;;4994179;28;20053;-70
2023/01/03 05:54:57;;;;;;;18.67;4.33;;;;;;;;;;4988089;28;20467;-70
2023/01/03 05:57:22;;;;;;;19.13;4.53;;;;;;;;;;4990163;28;20305;-70
2023/01/03 05:59:47;;;;;;;17.90;6.47;;;;;;;;;;4994572;28;20268;-70
2023/01/03 06:02:13;;;;;;;11.87;4.90;;;;;;;;;;4993799;28;20422;-70
2023/01/03 06:04:38;;;;;;;13.23;3.30;;;;;;;;;;4977001;28;20280;-70
2023/01/03 06:07:04;;;;;;;7.70;3.53;;;;;;;;;;4994659;28;20542;-70
2023/01/03 06:09:29;;;;;;;13.68;3.88;;;;;;;;;;4992399;28;20475;-70
2023/01/03 06:11:54;;;;;;;17.00;3.92;;;;;;;;;;4988559;28;20028;-70
2023/01/03 06:14:19;;;;;;;7.87;5.07;;;;;;;;;;4986638;28;20109;-70
2023/01/03 06:19:29;;;;;;;10.98;4.70;;;;;;;;;;4996761;28;20105;-70
2023/01/03 06:21:54;;;;;;;8.85;4.22;;;;;;;;;;4986928;28;20101;-70
2023/01/03 06:24:19;;;;;;;11.57;4.50;;;;;;;;;;4989866;28;20030;-70
2023/01/03 06:26:44;;;;;;;12.38;4.10;;;;;;;;;;4987259;28;20038;-71
2023/01/03 06:29:10;;;;;;;12.50;5.18;;;;;;;;;;4985616;28;20481;-70
2023/01/03 06:31:35;;;;;;;16.33;6.03;;;;;;;;;;4992569;28;20142;-70
2023/01/03 06:34:01;;;;;;;11.07;6.03;;;;;;;;;;4983492;28;20161;-71
2023/01/03 06:36:26;;;;;;;12.80;5.20;;;;;;;;;;4987992;28;20401;-71
2023/01/03 06:38:52;;;;;;;12.80;5.75;;;;;;;;;;4985219;28;20030;-70
2023/01/03 06:41:17;;;;;;;10.65;5.90;;;;;;;;;;4988647;28;20041;-71
2023/01/03 06:43:42;;;;;;;12.18;5.38;;;;;;;;;;4984412;28;20478;-70
2023/01/03 06:54:22;;;;;;;13.52;4.43;;;;;;;;;;4988539;28;20122;-70
2023/01/03 06:56:48;;;;;;;11.27;4.65;;;;;;;;;;4990660;28;20049;-70
2023/01/03 06:59:13;;;;;;;16.63;4.70;;;;;;;;;;4992877;28;20615;-70
2023/01/03 07:01:38;;;;;;;10.67;4.60;;;;;;;;;;4991662;28;20026;-70
2023/01/03 07:04:03;;;;;;;14.50;4.53;;;;;;;;;;4971501;28;20968;-70
2023/01/03 07:06:29;;;;;;;15.32;4.45;;;;;;;;;;4990941;28;20026;-70
2023/01/03 07:08:54;;;;;;;9.50;4.20;;;;;;;;;;4992153;28;20046;-70
2023/01/03 07:11:22;;;;;;;14.20;4.65;;;;;;;;;;4990539;28;20027;-70
2023/01/03 07:13:57;;;;;;;9.98;4.30;;;;;;;;;;4991395;28;20157;-70
2023/01/03 07:16:22;;;;;;;13.85;4.85;;;;;;;;;;4993210;28;20030;-70
2023/01/03 07:18:48;;;;;;;8.30;4.37;;;;;;;;;;4987364;28;20123;-70
2023/01/03 07:21:14;;;;;;;11.15;4.65;;;;;;;;;;4988911;28;20332;-70
2023/01/03 07:23:39;;;;;;;18.35;4.20;;;;;;;;;;4989234;28;20034;-70
2023/01/03 07:26:05;;;;;;;7.90;3.67;;;;;;;;;;4989438;28;20096;-70
2023/01/03 07:28:30;;;;;;;11.80;4.00;;;;;;;;;;4970642;28;20014;-70
2023/01/03 07:30:59;;;;;;;5.25;2.67;;;;;;;;;;4989028;28;20033;-70
2023/01/03 07:33:24;;;;;;;6.45;2.38;;;;;;;;;;4988741;28;20033;-70
2023/01/03 07:35:49;;;;;;;6.47;2.97;;;;;;;;;;4986367;28;20026;-70
2023/01/03 07:38:14;;;;;;;5.80;1.37;;;;;;;;;;4989676;28;20697;-70
2023/01/03 07:40:39;;;;;;;12.73;2.97;;;;;;;;;;4987100;28;20288;-70
2023/01/03 07:45:48;;;;;;;9.25;2.72;;;;;;;;;;4987479;28;20029;-70
2023/01/03 07:48:13;;;;;;;5.80;1.90;;;;;;;;;;4998111;28;20395;-70
2023/01/03 07:50:39;;;;;;;11.95;3.03;;;;;;;;;;4990108;28;20305;-70
2023/01/03 07:53:06;;;;;;;15.13;3.28;;;;;;;;;;4994391;28;20506;-70
2023/01/03 07:55:32;;;;;;;8.98;2.58;;;;;;;;;;4999659;28;20152;-70
2023/01/03 07:57:58;;;;;;;10.13;1.77;;;;;;;;;;4995041;28;20029;-70
2023/01/03 08:00:23;;;;;;;7.85;2.92;;;;;;;;;;4996332;28;20131;-70
2023/01/03 08:02:50;;;;;;;6.67;1.90;;;;;;;;;;4995059;28;20109;-70
2023/01/03 08:05:16;;;;;;;4.88;2.60;;;;;;;;;;4987161;28;20596;-70
2023/01/03 08:07:41;;;;;;;4.47;1.77;;;;;;;;;;4992407;28;20024;-70
2023/01/03 08:15:38;;;;;;;11.55;2.40;;;;;;;;;;4988337;28;20482;-70
2023/01/03 08:18:04;;;;;;;5.10;2.13;;;;;;;;;;4992551;28;20038;-70
2023/01/03 08:20:29;;;;;;;4.60;2.08;;;;;;;;;;4998804;28;20280;-70
2023/01/03 08:22:57;;;;;;;4.82;1.50;;;;;;;;;;4999681;28;20517;-70
2023/01/03 08:25:22;;;;;;;4.13;1.92;;;;;;;;;;4997603;28;20029;-70
2023/01/03 08:27:47;;;;;;;5.30;2.23;;;;;;;;;;5001079;28;20026;-70
2023/01/03 08:30:13;;;;;;;2.63;1.30;;;;;;;;;;4997137;28;20324;-70
2023/01/03 08:32:38;;;;;;;1.75;1.13;;;;;;;;;;4993789;28;20295;-70
2023/01/03 08:35:04;;;;;;;2.30;1.25;;;;;;;;;;4988309;28;20010;-70
2023/01/03 08:37:29;;;;;;;1.30;0.82;;;;;;;;;;4991079;28;20014;-70
2023/01/03 08:39:57;;;;;;;2.72;1.48;;;;;;;;;;4992418;28;20033;-70
2023/01/03 08:42:23;;;;;;;2.55;1.45;;;;;;;;;;4992176;28;20035;-70
2023/01/03 08:44:52;;;;;;;9.82;3.50;;;;;;;;;;4995081;28;20022;-70
2023/01/03 08:47:18;;;;;;;3.30;1.60;;;;;;;;;;4994649;28;20025;-70
2023/01/03 08:49:43;;;;;;;7.38;2.40;;;;;;;;;;4988402;28;20257;-70
2023/01/03 08:52:08;;;;;;;3.22;1.67;;;;;;;;;;4995549;28;20549;-70
2023/01/03 08:54:33;;;;;;;5.55;1.50;;;;;;;;;;4994324;28;20026;-70
2023/01/03 08:56:58;;;;;;;5.15;2.28;;;;;;;;;;4999808;28;20557;-70
2023/01/03 08:59:24;;;;;;;7.38;1.48;;;;;;;;;;4992694;28;20442;-70
2023/01/03 09:01:49;;;;;;;1.63;1.10;;;;;;;;;;4987227;28;20025;-70
2023/01/03 09:04:14;;;;;;;9.73;1.80;;;;;;;;;;4996313;28;20368;-70
2023/01/03 09:06:39;;;;;;;2.27;1.13;;;;;;;;;;5002916;28;20360;-70
2023/01/03 09:09:05;;;;;;;3.83;1.67;;;;;;;;;;4994445;28;21777;-70
2023/01/03 09:11:30;;;;;;;4.13;1.75;;;;;;;;;;4992516;28;20018;-70
2023/01/03 09:13:55;;;;;;;1.80;0.77;;;;;;;;;;4986856;28;20104;-71
2023/01/03 09:16:20;;;;;;;7.47;1.25;;;;;;;;;;4983126;28;20294;-71
2023/01/03 09:18:46;;;;;;;2.95;1.17;;;;;;;;;;4986199;28;20019;-71
2023/01/03 09:21:11;;;;;;;1.93;1.13;;;;;;;;;;4995062;28;20026;-71
2023/01/03 09:23:36;;;;;;;3.60;1.70;;;;;;;;;;4995389;28;20815;-71
2023/01/03 09:26:01;;;;;;;6.05;1.45;;;;;;;;;;4991551;28;20267;-71
2023/01/03 09:28:27;;;;;;;5.78;1.83;;;;;;;;;;4985571;28;20583;-71
2023/01/03 09:30:53;;;;;;;7.18;1.70;;;;;;;;;;4974325;28;20112;-71
2023/01/03 09:33:18;;;;;;;2.47;1.33;;;;;;;;;;4991717;28;20105;-71
2023/01/03 09:35:43;;;;;;;3.08;1.27;;;;;;;;;;4992189;28;20619;-71
2023/01/03 09:38:09;;;;;;;2.05;1.00;;;;;;;;;;4990116;28;20054;-71
2023/01/03 09:40:41;;;;;;;6.55;2.28;;;;;;;;;;4993446;28;20453;-70
2023/01/03 09:43:12;;;;;;;7.35;2.22;;;;;;;;;;4997582;28;20463;-70
2023/01/03 09:45:38;;;;;;;7.90;2.45;;;;;;;;;;4991574;28;20057;-70
2023/01/03 09:48:04;;;;;;;4.63;2.35;;;;;;;;;;4995310;28;20033;-70
2023/01/03 09:50:32;;;;;;;5.18;2.05;;;;;;;;;;4989473;28;20391;-70
2023/01/03 10:04:04;;;;;;;6.95;1.92;;;;;;;;;;4992476;28;20029;-70
2023/01/03 10:06:32;;;;;;;14.20;4.93;;;;;;;;;;5002612;28;20049;-70
2023/01/03 10:09:07;;;;;;;10.15;3.15;;;;;;;;;;4989055;28;20022;-70
2023/01/03 10:11:39;;;;;;;20.30;6.50;;;;;;;;;;4979990;28;20025;-70
2023/01/03 10:14:15;;;;;;;16.90;6.70;;;;;;;;;;4985403;28;20109;-70
2023/01/03 10:16:48;;;;;;;5.55;1.55;;;;;;;;;;4981445;28;20018;-70
2023/01/03 10:19:25;;;;;;;4.47;2.05;;;;;;;;;;4985187;28;20042;-70
2023/01/03 10:22:03;;;;;;;1.55;1.02;;;;;;;;;;4981964;28;20360;-70
2023/01/03 10:24:30;;;;;;;9.13;3.17;;;;;;;;;;4988655;28;20090;-70
2023/01/03 10:27:13;;;;;;;6.97;2.08;;;;;;;;;;4991728;28;20074;-70
2023/01/03 10:29:38;;;;;;;1.15;0.85;;;;;;;;;;4999024;28;20037;-70
2023/01/03 10:32:12;;;;;;;7.80;2.30;;;;;;;;;;4991754;28;20383;-70
2023/01/03 10:34:38;;;;;;;2.25;1.38;;;;;;;;;;4991212;28;20018;-70
2023/01/03 10:37:14;;;;;;;2.80;1.00;;;;;;;;;;4992985;28;20020;-70
2023/01/03 10:39:39;;;;;;;2.85;1.23;;;;;;;;;;5001240;28;20036;-70
2023/01/03 10:42:04;;;;;;;6.33;1.53;;;;;;;;;;4999690;28;20026;-70
2023/01/03 10:44:31;;;;;;;3.97;1.73;;;;;;;;;;4990455;28;20277;-70
2023/01/03 10:46:58;;;;;;;3.33;1.52;;;;;;;;;;4999933;28;20090;-70
2023/01/03 10:49:25;;;;;;;6.80;1.70;;;;;;;;;;5001406;28;20114;-70
2023/01/03 10:51:59;;;;;;;4.53;1.50;;;;;;;;;;4996471;28;20081;-70
2023/01/03 10:54:27;;;;;;;9.48;1.90;;;;;;;;;;4999471;28;20038;-70
2023/01/03 10:56:53;;;;;;;5.65;1.70;;;;;;;;;;4999580;28;20387;-70
2023/01/03 10:59:23;;;;;;;9.18;1.83;;;;;;;;;;4995874;28;20018;-70
2023/01/03 11:02:00;;;;;;;9.65;2.08;;;;;;;;;;4994041;28;20379;-70
2023/01/03 11:04:26;;;;;;;3.00;1.40;;;;;;;;;;4988829;28;20033;-70
2023/01/03 11:06:57;;;;;;;4.25;1.05;;;;;;;;;;4991939;28;20363;-70
2023/01/03 11:09:22;;;;;;;6.88;1.70;;;;;;;;;;4990143;28;20029;-70
2023/01/03 11:11:52;;;;;;;3.08;1.73;;;;;;;;;;4993353;28;20023;-71
2023/01/03 11:14:25;;;;;;;1.80;0.82;;;;;;;;;;4995999;28;20032;-70
2023/01/03 11:17:03;;;;;;;2.63;1.02;;;;;;;;;;4984178;28;20034;-70
2023/01/03 11:19:30;;;;;;;6.82;1.40;;;;;;;;;;4983491;28;20041;-71
2023/01/03 11:22:00;;;;;;;4.93;1.20;;;;;;;;;;4966748;28;22079;-70
2023/01/03 11:24:35;;;;;;;4.95;0.98;;;;;;;;;;4991755;28;20092;-71
2023/01/03 11:27:15;;;;;;;4.13;1.10;;;;;;;;;;4981280;28;20027;-70
2023/01/03 11:29:50;;;;;;;4.07;1.20;;;;;;;;;;4989000;28;20430;-70
2023/01/03 11:32:15;;;;;;;8.68;1.17;;;;;;;;;;4978841;28;20065;-70
2023/01/03 11:34:51;;;;;;;0.88;0.65;;;;;;;;;;4980525;28;21397;-72
2023/01/03 11:37:30;;;;;;;5.88;1.35;;;;;;;;;;4979689;28;20081;-72
2023/01/03 11:40:06;;;;;;;7.15;1.25;;;;;;;;;;4980551;28;20073;-71
2023/01/03 11:42:35;;;;;;;4.90;1.05;;;;;;;;;;4982185;28;20030;-71
2023/01/03 11:45:35;;;;;;;3.75;0.60;;;;;;;;;;4987641;28;20014;-71
2023/01/03 11:48:00;;;;;;;6.72;1.27;;;;;;;;;;4903573;29;20325;-71
2023/01/03 11:50:31;;;;;;;1.00;0.50;;;;;;;;;;4966629;28;20045;-71
2023/01/03 11:53:03;;;;;;;4.00;1.20;;;;;;;;;;4980294;28;20285;-71
2023/01/03 11:55:47;;;;;;;5.00;1.00;;;;;;;;;;4982200;28;20109;-71
2023/01/03 11:58:15;;;;;;;3.53;0.90;;;;;;;;;;4979762;28;20041;-71
2023/01/03 12:01:02;;;;;;;4.18;1.02;;;;;;;;;;4980333;28;20769;-71
2023/01/03 12:03:46;;;;;;;5.65;0.77;;;;;;;;;;4982724;28;20041;-71
2023/01/03 12:06:20;;;;;;;8.90;0.65;;;;;;;;;;4981556;28;20101;-71
2023/01/03 12:08:58;;;;;;;9.55;1.30;;;;;;;;;;4977160;28;20027;-71
2023/01/03 12:11:35;;;;;;;5.05;1.55;;;;;;;;;;4980290;28;20415;-71
2023/01/03 12:14:12;;;;;;;2.83;0.80;;;;;;;;;;4980831;28;20037;-71
2023/01/03 12:16:40;;;;;;;5.45;1.13;;;;;;;;;;4979416;28;20108;-71
2023/01/03 12:19:25;;;;;;;2.55;0.65;;;;;;;;;;4979741;28;20506;-71
2023/01/03 12:21:52;;;;;;;3.28;0.70;;;;;;;;;;4981820;28;20081;-70
2023/01/03 12:24:29;;;;;;;3.10;0.47;;;;;;;;;;4979344;28;20033;-71
2023/01/03 12:26:55;;;;;;;2.83;1.30;;;;;;;;;;4979335;28;20024;-70
2023/01/03 12:29:27;;;;;;;10.73;1.02;;;;;;;;;;4987487;28;20022;-71
2023/01/03 12:31:58;;;;;;;3.85;1.02;;;;;;;;;;4961896;28;20024;-71
2023/01/03 12:34:42;;;;;;;7.30;0.82;;;;;;;;;;4966454;28;20418;-70
2023/01/03 12:37:12;;;;;;;3.08;1.02;;;;;;;;;;4980280;28;20030;-70
2023/01/03 12:39:53;;;;;;;3.05;1.33;;;;;;;;;;4977650;28;20022;-70
2023/01/03 12:42:26;;;;;;;3.78;1.45;;;;;;;;;;4981896;28;20565;-71
2023/01/03 12:45:14;;;;;;;4.97;0.98;;;;;;;;;;4977567;28;20026;-70
2023/01/03 12:47:47;;;;;;;5.50;0.90;;;;;;;;;;4945236;28;20030;-70
2023/01/03 12:50:27;;;;;;;5.10;1.15;;;;;;;;;;4978944;28;20022;-70
2023/01/03 12:52:57;;;;;;;4.35;0.75;;;;;;;;;;5015038;23;20057;-67
2023/01/03 12:55:22;;;;;;;2.03;0.57;;;;;;;;;;5003196;28;20029;-67
2023/01/03 12:57:59;;;;;;;6.20;0.80;;;;;;;;;;5001715;28;20033;-67
2023/01/03 13:00:29;;;;;;;3.67;0.68;;;;;;;;;;5001344;28;20355;-68
2023/01/03 13:03:00;;;;;;;4.28;0.75;;;;;;;;;;5002323;28;20025;-67
2023/01/03 13:05:25;;;;;;;4.43;0.93;;;;;;;;;;5003855;28;20062;-68
2023/01/03 13:08:03;;;;;;;10.57;1.13;;;;;;;;;;5001689;28;20384;-67
2023/01/03 13:10:29;;;;;;;3.72;0.70;;;;;;;;;;5000991;28;20022;-67
2023/01/03 13:12:55;;;;;;;6.07;0.90;;;;;;;;;;5003156;28;20050;-67
2023/01/03 13:15:28;;;;;;;7.97;0.40;;;;;;;;;;4985171;28;21113;-68
2023/01/03 13:17:54;;;;;;;6.05;0.65;;;;;;;;;;5002120;28;20441;-68
2023/01/03 13:20:28;;;;;;;7.88;1.33;;;;;;;;;;5007698;28;20022;-67
2023/01/03 13:22:53;;;;;;;9.05;0.60;;;;;;;;;;5003048;28;20096;-67
2023/01/03 13:25:42;;;;;;;8.60;0.75;;;;;;;;;;5002739;28;20022;-67
2023/01/03 13:28:17;;;;;;;1.20;0.38;;;;;;;;;;4989782;28;20124;-68
2023/01/03 13:30:42;;;;;;;4.57;0.68;;;;;;;;;;5002679;28;20370;-68
2023/01/03 13:33:10;;;;;;;2.53;0.90;;;;;;;;;;5003756;28;20089;-67
2023/01/03 13:35:51;;;;;;;2.55;0.50;;;;;;;;;;5002615;28;20026;-67
2023/01/03 13:38:18;;;;;;;3.92;0.65;;;;;;;;;;5001957;28;20054;-67
2023/01/03 13:40:44;;;;;;;8.98;0.60;;;;;;;;;;5006111;28;20022;-67
2023/01/03 13:43:10;;;;;;;3.65;0.60;;;;;;;;;;5004546;28;20034;-67
2023/01/03 13:45:35;;;;;;;3.00;0.45;;;;;;;;;;5005911;28;20363;-67
2023/01/03 13:48:15;;;;;;;2.08;0.80;;;;;;;;;;5004575;28;20022;-67
2023/01/03 13:51:00;;;;;;;6.07;0.80;;;;;;;;;;5005840;28;20461;-67
2023/01/03 13:53:27;;;;;;;1.13;0.43;;;;;;;;;;5003690;28;20126;-67
2023/01/03 13:55:57;;;;;;;4.45;1.20;;;;;;;;;;5006916;28;20038;-67
2023/01/03 13:58:31;;;;;;;10.07;1.10;;;;;;;;;;5008082;28;20029;-68
2023/01/03 14:00:58;;;;;;;4.18;1.77;;;;;;;;;;5011967;28;20065;-68
2023/01/03 14:03:42;;;;;;;5.30;0.90;;;;;;;;;;5012475;28;20049;-68
2023/01/03 14:06:26;;;;;;;3.03;0.63;;;;;;;;;;5012255;28;20049;-68
2023/01/03 14:08:51;;;;;;;7.88;1.63;;;;;;;;;;5005327;28;20137;-68
2023/01/03 14:11:35;;;;;;;8.60;2.35;;;;;;;;;;5009488;28;20093;-68
2023/01/03 14:14:07;;;;;;;4.25;0.68;;;;;;;;;;5010957;28;20041;-68
2023/01/03 14:16:46;;;;;;;2.17;0.60;;;;;;;;;;5011623;28;20018;-68
2023/01/03 14:19:17;;;;;;;9.25;0.80;;;;;;;;;;5004724;28;20037;-68
2023/01/03 14:21:48;;;;;;;4.07;0.98;;;;;;;;;;5008593;28;20101;-68
2023/01/03 14:24:19;;;;;;;1.70;0.50;;;;;;;;;;5010936;28;20030;-68
2023/01/03 14:26:44;;;;;;;5.70;0.85;;;;;;;;;;5006814;28;20417;-68
2023/01/03 14:29:14;;;;;;;6.65;0.95;;;;;;;;;;5010015;28;20022;-68
2023/01/03 14:31:43;;;;;;;7.13;0.70;;;;;;;;;;5011572;28;20370;-69
2023/01/03 14:34:35;;;;;;;2.97;1.17;;;;;;;;;;5004217;28;20037;-68
2023/01/03 14:37:01;;;;;;;5.43;0.60;;;;;;;;;;5002886;28;20125;-68
2023/01/03 14:39:36;;;;;;;2.53;0.75;;;;;;;;;;5007995;28;20410;-68
2023/01/03 14:42:03;;;;;;;7.53;0.90;;;;;;;;;;5009422;28;20032;-68
2023/01/03 14:44:28;;;;;;;0.95;0.55;;;;;;;;;;5011082;28;20034;-68
2023/01/03 14:46:56;;;;;;;4.20;0.77;;;;;;;;;;5007521;28;20029;-68
2023/01/03 14:49:27;;;;;;;2.45;0.70;;;;;;;;;;5011850;28;20026;-68
2023/01/03 14:51:57;;;;;;;2.40;0.70;;;;;;;;;;5010142;28;20032;-68
2023/01/03 14:54:23;;;;;;;3.15;0.50;;;;;;;;;;5010893;28;20408;-68
2023/01/03 14:56:48;;;;;;;3.38;0.80;;;;;;;;;;5010963;28;20030;-68
2023/01/03 14:59:15;;;;;;;6.40;1.30;;;;;;;;;;5009814;28;20017;-68
2023/01/03 15:01:41;;;;;;;11.35;3.60;;;;;;;;;;5006054;28;20041;-68
2023/01/03 15:04:06;;;;;;;13.52;4.30;;;;;;;;;;5007078;28;20458;-68
2023/01/03 15:06:31;;;;;;;9.73;4.88;;;;;;;;;;5010543;28;20100;-68
2023/01/03 15:08:58;;;;;;;6.40;3.20;;;;;;;;;;5006074;28;20053;-68
2023/01/03 15:11:31;;;;;;;2.97;1.90;;;;;;;;;;5009046;28;20026;-68
2023/01/03 15:13:59;;;;;;;5.05;0.90;;;;;;;;;;5009705;28;20528;-68
2023/01/03 15:16:28;;;;;;;4.68;1.05;;;;;;;;;;5005304;28;20026;-69
2023/01/03 15:19:02;;;;;;;6.05;1.27;;;;;;;;;;5003440;28;20030;-69
2023/01/03 15:21:28;;;;;;;6.72;0.82;;;;;;;;;;5005040;28;20030;-69
2023/01/03 15:23:53;;;;;;;5.15;1.02;;;;;;;;;;5005437;28;20030;-68
2023/01/03 15:26:21;;;;;;;2.97;0.80;;;;;;;;;;5008237;28;20168;-68
2023/01/03 15:28:49;;;;;;;3.70;0.77;;;;;;;;;;5005589;28;20303;-68
2023/01/03 15:31:35;;;;;;;5.97;1.10;;;;;;;;;;5001008;28;20022;-68
2023/01/03 15:34:01;;;;;;;8.80;1.00;;;;;;;;;;5002819;28;20029;-68
2023/01/03 15:36:27;;;;;;;3.20;0.67;;;;;;;;;;5004584;28;20383;-68
2023/01/03 15:38:52;;;;;;;4.03;0.70;;;;;;;;;;5002135;28;20273;-68
2023/01/03 15:44:20;;;;;;;7.00;0.88;;;;;;;;;;4999673;28;20303;-68
2023/01/03 15:46:48;;;;;;;1.83;0.50;;;;;;;;;;5006439;28;20068;-68
2023/01/03 15:49:15;;;;;;;7.18;0.52;;;;;;;;;;5009744;28;20018;-68
2023/01/03 15:51:40;;;;;;;6.00;0.90;;;;;;;;;;5010577;28;20021;-68